Time;durP1;ratioP1;P1;durP2;ratioP2;P2;SDS_P1;SDS_P2;PMS_P1;PMS_P2;Temp;Humidity;BMP_temperature;BMP_pressure;BME280_temperature;BME280_humidity;BME280_pressure;Samples;Min_cycle;Max_cycle;Signal;HPM_P1;HPM_P2
2023/12/29 00:02:21;;;;;;;6.40;4.40;;;;;;;3.78;100.00;101210.09;109782;1249;71653;-79
2023/12/29 00:04:48;;;;;;;9.40;4.50;;;;;;;3.80;100.00;101204.52;109776;1250;63692;-78
2023/12/29 00:07:16;;;;;;;8.00;4.40;;;;;;;3.81;100.00;101202.27;109746;1250;71237;-80
2023/12/29 00:09:47;;;;;;;9.50;4.20;;;;;;;3.80;100.00;101193.79;109801;1251;60798;-79
2023/12/29 00:12:15;;;;;;;11.10;5.30;;;;;;;3.78;100.00;101184.50;109765;1251;60089;-78
2023/12/29 00:14:44;;;;;;;6.20;3.90;;;;;;;3.78;100.00;101180.87;109752;1249;72199;-78
2023/12/29 00:17:11;;;;;;;9.80;4.40;;;;;;;3.77;100.00;101175.17;109796;1250;63604;-79
2023/12/29 00:19:39;;;;;;;10.90;5.80;;;;;;;3.78;100.00;101171.54;109751;1250;72497;-79
2023/12/29 00:22:07;;;;;;;7.00;4.70;;;;;;;3.77;100.00;101175.00;109737;1250;62294;-79
2023/12/29 00:24:35;;;;;;;9.70;4.00;;;;;;;3.79;100.00;101170.46;109797;1250;59904;-80
2023/12/29 00:27:03;;;;;;;8.90;4.00;;;;;;;3.80;100.00;101166.98;109750;1250;71738;-79
2023/12/29 00:29:32;;;;;;;6.20;3.90;;;;;;;3.82;100.00;101165.91;109772;1250;62296;-79
2023/12/29 00:32:02;;;;;;;8.80;3.60;;;;;;;3.84;100.00;101164.81;109761;1250;71419;-79
2023/12/29 00:34:31;;;;;;;11.30;5.00;;;;;;;3.87;100.00;101158.17;109740;1250;59563;-80
2023/12/29 00:37:00;;;;;;;6.00;3.90;;;;;;;3.89;100.00;101151.02;109896;1249;59995;-80
2023/12/29 00:39:29;;;;;;;5.80;3.80;;;;;;;3.93;100.00;101142.98;109723;1250;73084;-78
2023/12/29 00:41:57;;;;;;;5.20;3.80;;;;;;;3.95;100.00;101138.27;109771;1250;63065;-79
2023/12/29 00:44:25;;;;;;;9.20;4.20;;;;;;;3.96;100.00;101132.35;109781;1250;71426;-78
2023/12/29 00:46:52;;;;;;;7.90;3.80;;;;;;;3.98;100.00;101124.88;109624;1251;61801;-79
2023/12/29 00:49:21;;;;;;;7.50;3.70;;;;;;;3.99;100.00;101125.54;109784;1255;58521;-79
2023/12/29 00:51:48;;;;;;;8.50;3.70;;;;;;;4.00;100.00;101123.79;109771;1250;73091;-79
2023/12/29 00:54:16;;;;;;;6.40;4.70;;;;;;;4.00;100.00;101119.61;109832;1250;63492;-79
2023/12/29 00:56:49;;;;;;;4.60;3.90;;;;;;;4.01;100.00;101098.66;109708;1249;72563;-79
2023/12/29 00:59:18;;;;;;;6.90;3.70;;;;;;;4.01;100.00;101077.40;109807;1249;59827;-80
2023/12/29 01:01:45;;;;;;;12.10;4.50;;;;;;;4.00;100.00;101068.25;109758;1249;60021;-81
2023/12/29 01:04:13;;;;;;;8.20;4.20;;;;;;;3.98;100.00;101062.60;109663;1250;72037;-78
2023/12/29 01:06:41;;;;;;;8.30;3.90;;;;;;;3.94;100.00;101054.04;109780;1249;62738;-78
2023/12/29 01:09:11;;;;;;;8.80;3.70;;;;;;;3.93;100.00;101045.94;109731;1250;72681;-80
2023/12/29 01:11:39;;;;;;;6.70;3.60;;;;;;;3.91;100.00;101043.74;109702;1251;60046;-79
2023/12/29 01:14:07;;;;;;;6.60;3.80;;;;;;;3.88;100.00;101040.88;109696;1250;58743;-79
2023/12/29 01:16:35;;;;;;;6.40;3.40;;;;;;;3.87;100.00;101037.98;109643;1253;72756;-78
2023/12/29 01:19:02;;;;;;;6.10;3.40;;;;;;;3.86;100.00;101040.77;109667;1252;62437;-78
2023/12/29 01:21:33;;;;;;;11.40;3.70;;;;;;;3.85;100.00;101047.02;109638;1253;72519;-79
2023/12/29 01:24:06;;;;;;;7.40;4.10;;;;;;;3.85;100.00;101056.00;109643;1253;59695;-78
2023/12/29 01:26:38;;;;;;;6.50;4.10;;;;;;;3.86;100.00;101057.18;109569;1252;59268;-78
2023/12/29 01:29:06;;;;;;;5.60;3.90;;;;;;;3.87;100.00;101056.98;109647;1252;72404;-79
2023/12/29 01:31:33;;;;;;;6.90;4.00;;;;;;;3.90;100.00;101056.21;109705;1251;63717;-80
2023/12/29 01:34:01;;;;;;;6.70;4.10;;;;;;;3.94;100.00;101053.88;109619;1253;72405;-80
2023/12/29 01:36:29;;;;;;;7.80;4.20;;;;;;;3.99;100.00;101056.33;109630;1253;59806;-80
2023/12/29 01:38:57;;;;;;;8.20;4.60;;;;;;;4.02;100.00;101037.06;109728;1252;58071;-79
2023/12/29 01:41:24;;;;;;;7.00;3.90;;;;;;;4.04;100.00;101033.54;109636;1252;72608;-77
2023/12/29 01:44:17;;;;;;;8.10;4.20;;;;;;;4.04;100.00;101028.70;109643;1252;62496;-78
2023/12/29 01:46:46;;;;;;;8.50;5.40;;;;;;;4.02;100.00;101029.61;109669;1252;72678;-79
2023/12/29 01:49:17;;;;;;;5.60;4.60;;;;;;;4.02;100.00;101029.12;109532;1251;59716;-78
2023/12/29 01:51:48;;;;;;;6.60;4.50;;;;;;;4.02;100.00;101025.65;109643;1252;60231;-79
2023/12/29 01:54:16;;;;;;;10.60;4.30;;;;;;;4.02;100.00;101024.27;109604;1256;73802;-78
2023/12/29 01:56:43;;;;;;;11.10;5.70;;;;;;;4.02;100.00;101028.04;109666;1252;63644;-81
2023/12/29 01:59:11;;;;;;;7.10;4.50;;;;;;;4.04;100.00;101033.38;109522;1252;72760;-78
2023/12/29 02:01:51;;;;;;;8.70;4.00;;;;;;;4.07;100.00;101025.52;109390;1254;59596;-78
2023/12/29 02:04:18;;;;;;;4.80;4.30;;;;;;;4.10;100.00;101023.69;109415;1251;59314;-77
2023/12/29 02:06:46;;;;;;;8.60;4.00;;;;;;;4.12;100.00;101014.81;109509;1253;73934;-78
2023/12/29 02:09:13;;;;;;;8.70;3.90;;;;;;;4.14;100.00;101006.11;109664;1253;62411;-78
2023/12/29 02:11:41;;;;;;;10.10;4.80;;;;;;;4.15;100.00;100987.55;109463;1256;71417;-79
2023/12/29 02:14:08;;;;;;;10.00;6.30;;;;;;;4.15;100.00;100963.52;109659;1252;60151;-78
2023/12/29 02:17:07;;;;;;;10.70;5.10;;;;;;;4.12;100.00;100953.05;109432;1251;58749;-79
2023/12/29 02:19:42;;;;;;;6.80;4.60;;;;;;;4.07;100.00;100960.44;109672;1253;72984;-78
2023/12/29 02:22:11;;;;;;;7.30;5.00;;;;;;;4.06;100.00;100972.42;109515;1251;62616;-78
2023/12/29 02:24:39;;;;;;;6.90;4.60;;;;;;;4.05;100.00;100969.84;109516;1256;70745;-78
2023/12/29 02:27:32;;;;;;;7.50;5.20;;;;;;;4.04;100.00;100953.62;109536;1253;59990;-78
2023/12/29 02:30:11;;;;;;;11.00;5.40;;;;;;;4.03;100.00;100945.01;109628;1252;59319;-80
2023/12/29 02:32:40;;;;;;;6.50;4.50;;;;;;;4.01;100.00;100947.64;109620;1253;72616;-78
2023/12/29 02:35:14;;;;;;;4.50;3.90;;;;;;;3.99;100.00;100944.58;109671;1251;64221;-78
2023/12/29 02:37:42;;;;;;;6.40;4.50;;;;;;;3.97;100.00;100948.09;109534;1253;71763;-79
2023/12/29 02:40:10;;;;;;;5.60;3.80;;;;;;;3.97;100.00;100946.70;109595;1252;59618;-78
2023/12/29 02:42:38;;;;;;;10.30;5.10;;;;;;;3.99;100.00;100951.18;109612;1252;60001;-81
2023/12/29 02:45:06;;;;;;;6.40;4.50;;;;;;;4.00;100.00;100941.11;109487;1252;72582;-79
2023/12/29 02:47:34;;;;;;;9.10;4.90;;;;;;;4.01;100.00;100942.97;109625;1252;62465;-80
2023/12/29 02:50:02;;;;;;;11.00;5.70;;;;;;;4.02;100.00;100936.54;109607;1256;72470;-79
2023/12/29 02:52:30;;;;;;;12.10;4.80;;;;;;;4.03;100.00;100932.38;109625;1253;60961;-79
2023/12/29 02:54:58;;;;;;;9.60;5.40;;;;;;;4.04;100.00;100932.16;109682;1252;60051;-79
2023/12/29 02:57:26;;;;;;;10.80;5.80;;;;;;;4.05;100.00;100933.18;109657;1251;72679;-79
2023/12/29 02:59:54;;;;;;;7.10;5.40;;;;;;;4.07;100.00;100929.15;109622;1253;62590;-78
2023/12/29 03:02:23;;;;;;;12.20;5.80;;;;;;;4.09;100.00;100930.13;109657;1252;71434;-79
2023/12/29 03:04:50;;;;;;;19.70;10.30;;;;;;;4.10;100.00;100935.80;109627;1252;59566;-78
2023/12/29 03:07:17;;;;;;;16.60;10.50;;;;;;;4.11;100.00;100937.67;109631;1251;58960;-82
2023/12/29 03:09:45;;;;;;;13.10;6.40;;;;;;;4.12;100.00;100938.52;109675;1252;73840;-80
2023/12/29 03:12:13;;;;;;;11.80;5.60;;;;;;;4.11;100.00;100932.14;109700;1249;62582;-79
2023/12/29 03:14:40;;;;;;;15.10;5.90;;;;;;;4.10;100.00;100928.02;109864;1250;71642;-78
2023/12/29 03:17:09;;;;;;;11.10;5.80;;;;;;;4.09;100.00;100927.35;109718;1249;61157;-80
2023/12/29 03:19:36;;;;;;;13.80;6.60;;;;;;;4.08;100.00;100928.42;109764;1249;60103;-78
2023/12/29 03:22:04;;;;;;;11.00;6.10;;;;;;;4.06;100.00;100936.95;109744;1250;74285;-77
2023/12/29 03:24:31;;;;;;;9.80;5.20;;;;;;;4.04;100.00;100941.33;109717;1251;63565;-78
2023/12/29 03:26:59;;;;;;;15.00;6.80;;;;;;;4.02;100.00;100938.27;109759;1250;72439;-78
2023/12/29 03:29:27;;;;;;;10.00;6.40;;;;;;;4.00;100.00;100938.84;109672;1252;61062;-79
2023/12/29 03:31:54;;;;;;;13.60;6.40;;;;;;;3.97;100.00;100944.98;109813;1250;60002;-80
2023/12/29 03:34:22;;;;;;;11.60;6.40;;;;;;;3.95;100.00;100947.27;109860;1250;73760;-79
2023/12/29 03:36:49;;;;;;;12.20;6.70;;;;;;;3.95;100.00;100950.04;109853;1250;62902;-78
2023/12/29 03:39:18;;;;;;;11.50;7.40;;;;;;;3.94;100.00;100953.20;109742;1251;71369;-78
2023/12/29 03:41:45;;;;;;;11.90;6.50;;;;;;;3.95;100.00;100953.35;109777;1251;59555;-79
2023/12/29 03:44:13;;;;;;;7.40;5.80;;;;;;;3.96;100.00;100949.34;109737;1250;60014;-78
2023/12/29 03:46:40;;;;;;;10.30;6.20;;;;;;;3.98;100.00;100956.71;109717;1250;72842;-76
2023/12/29 03:49:08;;;;;;;11.20;6.70;;;;;;;4.01;100.00;100963.05;109760;1251;62750;-77
2023/12/29 03:51:35;;;;;;;11.90;6.90;;;;;;;4.04;100.00;100973.35;109767;1250;70797;-76
2023/12/29 03:54:04;;;;;;;19.80;9.10;;;;;;;4.09;100.00;100968.53;109576;1251;59535;-79
2023/12/29 03:56:31;;;;;;;14.00;8.40;;;;;;;4.13;100.00;100960.27;109775;1251;59973;-78
2023/12/29 03:58:59;;;;;;;15.60;9.80;;;;;;;4.18;100.00;100967.07;109916;1250;73924;-78
2023/12/29 04:01:27;;;;;;;19.60;10.00;;;;;;;4.22;100.00;100965.06;109718;1249;62248;-80
2023/12/29 04:03:56;;;;;;;13.90;8.00;;;;;;;4.28;100.00;100962.13;109797;1250;71313;-80
2023/12/29 04:06:24;;;;;;;11.80;7.20;;;;;;;4.32;100.00;100967.53;109719;1254;59570;-77
2023/12/29 04:08:52;;;;;;;13.00;7.10;;;;;;;4.36;100.00;100963.27;109781;1250;60063;-77
2023/12/29 04:11:20;;;;;;;12.00;7.60;;;;;;;4.40;100.00;100970.42;109783;1250;73825;-79
2023/12/29 04:13:48;;;;;;;13.40;7.70;;;;;;;4.42;100.00;100966.05;109808;1249;61690;-80
2023/12/29 04:16:16;;;;;;;12.80;8.60;;;;;;;4.44;100.00;100968.59;109767;1250;71864;-78
2023/12/29 04:18:43;;;;;;;16.40;8.80;;;;;;;4.47;100.00;100963.81;109704;1250;59682;-78
2023/12/29 04:21:15;;;;;;;15.10;8.20;;;;;;;4.50;100.00;100957.32;109773;1250;60074;-79
2023/12/29 04:23:43;;;;;;;15.50;9.90;;;;;;;4.53;100.00;100952.91;109774;1250;73807;-76
2023/12/29 04:26:10;;;;;;;23.40;14.40;;;;;;;4.55;100.00;100952.85;109875;1250;63542;-77
2023/12/29 04:28:37;;;;;;;13.90;10.30;;;;;;;4.54;100.00;100949.06;109865;1249;72738;-78
2023/12/29 04:31:05;;;;;;;16.80;9.80;;;;;;;4.54;100.00;100944.75;109820;1250;59539;-80
2023/12/29 04:33:33;;;;;;;14.60;9.70;;;;;;;4.54;100.00;100946.84;109857;1249;58728;-79
2023/12/29 04:36:02;;;;;;;16.30;10.70;;;;;;;4.53;100.00;100952.38;109708;1250;72634;-79
2023/12/29 04:38:29;;;;;;;18.10;11.50;;;;;;;4.54;100.00;100958.77;109908;1250;63677;-77
2023/12/29 04:40:57;;;;;;;18.10;11.20;;;;;;;4.56;100.00;100958.02;109913;1250;71333;-77
2023/12/29 04:43:24;;;;;;;19.40;11.80;;;;;;;4.57;100.00;100950.73;109981;1250;59647;-78
2023/12/29 04:45:52;;;;;;;16.40;11.90;;;;;;;4.58;100.00;100934.42;110017;1249;58717;-78
2023/12/29 04:48:19;;;;;;;18.00;11.20;;;;;;;4.56;100.00;100923.20;109980;1250;72544;-78
2023/12/29 04:50:47;;;;;;;21.40;12.70;;;;;;;4.55;100.00;100930.17;109901;1250;62251;-77
2023/12/29 04:53:14;;;;;;;20.00;11.40;;;;;;;4.54;100.00;100932.65;110002;1250;72700;-78
2023/12/29 04:55:42;;;;;;;21.70;12.30;;;;;;;4.52;100.00;100941.70;109916;1250;58633;-79
2023/12/29 04:58:09;;;;;;;20.70;15.70;;;;;;;4.52;100.00;100943.59;110020;1254;59993;-79
2023/12/29 05:00:37;;;;;;;25.60;15.10;;;;;;;4.52;100.00;100947.58;110016;1250;73791;-79
2023/12/29 05:03:05;;;;;;;19.50;13.20;;;;;;;4.52;100.00;100948.42;109978;1250;61987;-78
2023/12/29 05:05:33;;;;;;;18.90;13.00;;;;;;;4.53;100.00;100950.48;109955;1250;71396;-78
2023/12/29 05:08:00;;;;;;;21.50;12.10;;;;;;;4.54;100.00;100949.23;109888;1250;61115;-78
2023/12/29 05:10:29;;;;;;;18.60;13.00;;;;;;;4.53;100.00;100950.12;109879;1251;58765;-79
2023/12/29 05:12:57;;;;;;;16.90;12.60;;;;;;;4.52;100.00;100953.27;109865;1249;72576;-78
2023/12/29 05:15:24;;;;;;;17.90;12.70;;;;;;;4.51;100.00;100956.95;109978;1250;63820;-79
2023/12/29 05:17:52;;;;;;;18.60;12.30;;;;;;;4.52;100.00;100964.87;109899;1249;71080;-78
2023/12/29 05:20:19;;;;;;;19.30;12.60;;;;;;;4.52;100.00;100974.39;109818;1252;59965;-79
2023/12/29 05:22:47;;;;;;;20.80;12.50;;;;;;;4.54;100.00;100968.83;109893;1250;58796;-77
2023/12/29 05:25:14;;;;;;;20.60;12.80;;;;;;;4.54;100.00;100970.37;109884;1250;73869;-78
2023/12/29 05:27:42;;;;;;;20.80;13.70;;;;;;;4.55;100.00;100968.09;109833;1250;64026;-80
2023/12/29 05:30:10;;;;;;;17.40;12.80;;;;;;;4.54;100.00;100970.02;109847;1249;70944;-80
2023/12/29 05:32:37;;;;;;;20.20;13.00;;;;;;;4.56;100.00;100977.25;109806;1250;59545;-78
2023/12/29 05:35:05;;;;;;;16.60;13.50;;;;;;;4.57;100.00;100983.09;109872;1251;58747;-80
2023/12/29 05:37:33;;;;;;;21.20;13.40;;;;;;;4.61;100.00;100985.41;109814;1249;73141;-79
2023/12/29 05:40:00;;;;;;;20.60;13.30;;;;;;;4.64;100.00;100986.54;109858;1249;63608;-80
2023/12/29 05:42:28;;;;;;;23.90;15.40;;;;;;;4.66;100.00;100993.03;109817;1251;72782;-80
2023/12/29 05:44:55;;;;;;;22.20;14.80;;;;;;;4.69;100.00;100996.61;109823;1251;60863;-79
2023/12/29 05:47:23;;;;;;;21.20;15.30;;;;;;;4.70;100.00;100992.41;109879;1250;58955;-79
2023/12/29 05:49:50;;;;;;;19.80;13.80;;;;;;;4.72;100.00;100991.14;109807;1249;71657;-81
2023/12/29 05:52:18;;;;;;;20.50;15.70;;;;;;;4.74;100.00;100988.13;109896;1250;63594;-80
2023/12/29 05:54:45;;;;;;;20.00;14.30;;;;;;;4.75;100.00;100983.42;109800;1250;71808;-80
2023/12/29 05:57:16;;;;;;;23.00;16.20;;;;;;;4.75;100.00;100982.38;109819;1250;60841;-80
2023/12/29 05:59:43;;;;;;;21.20;15.20;;;;;;;4.74;100.00;100975.99;109859;1250;62198;-80
2023/12/29 06:02:10;;;;;;;23.30;14.10;;;;;;;4.76;100.00;100974.58;109835;1249;71362;-79
2023/12/29 06:04:38;;;;;;;18.30;14.50;;;;;;;4.78;100.00;100968.61;109859;1250;63760;-79
2023/12/29 06:07:05;;;;;;;20.50;14.10;;;;;;;4.79;100.00;100972.59;109817;1251;71426;-80
2023/12/29 06:09:32;;;;;;;26.10;14.70;;;;;;;4.82;100.00;100977.86;109810;1250;61054;-79
2023/12/29 06:12:00;;;;;;;20.90;14.40;;;;;;;4.85;100.00;100982.95;109910;1249;59770;-78
2023/12/29 06:14:27;;;;;;;20.60;13.90;;;;;;;4.88;100.00;100988.26;109819;1250;74355;-80
2023/12/29 06:16:55;;;;;;;25.90;15.20;;;;;;;4.89;100.00;100982.34;109864;1250;62376;-81
2023/12/29 06:19:23;;;;;;;21.70;14.50;;;;;;;4.89;100.00;100980.25;109812;1249;72835;-80
2023/12/29 06:21:50;;;;;;;21.30;15.10;;;;;;;4.90;100.00;100976.76;109812;1250;59635;-79
2023/12/29 06:24:18;;;;;;;21.70;14.70;;;;;;;4.91;100.00;100975.52;109886;1250;59994;-79
2023/12/29 06:26:45;;;;;;;17.10;13.30;;;;;;;4.93;100.00;100972.31;109886;1249;74111;-79
2023/12/29 06:29:13;;;;;;;23.80;13.90;;;;;;;4.96;100.00;100974.99;109999;1250;63971;-79
2023/12/29 06:31:42;;;;;;;18.50;14.30;;;;;;;4.98;100.00;100970.41;109956;1251;71136;-79
2023/12/29 06:34:10;;;;;;;23.30;14.50;;;;;;;5.02;100.00;100977.08;109851;1250;59576;-79
2023/12/29 06:36:38;;;;;;;26.80;16.10;;;;;;;5.07;100.00;100985.40;109874;1250;58799;-81
2023/12/29 06:39:06;;;;;;;26.70;19.20;;;;;;;5.12;100.00;100981.27;109815;1251;73946;-81
2023/12/29 06:41:34;;;;;;;21.40;15.00;;;;;;;5.15;100.00;100982.55;109745;1251;62305;-81
2023/12/29 06:44:02;;;;;;;18.80;14.70;;;;;;;5.18;100.00;100987.30;109832;1250;72714;-79
2023/12/29 06:46:29;;;;;;;23.00;13.80;;;;;;;5.22;100.00;100992.92;109784;1250;61374;-81
2023/12/29 06:48:56;;;;;;;18.30;13.30;;;;;;;5.24;100.00;100992.33;109886;1254;59995;-81
2023/12/29 06:51:25;;;;;;;21.40;14.10;;;;;;;5.24;100.00;100989.18;109849;1250;72533;-81
2023/12/29 06:53:52;;;;;;;21.40;14.60;;;;;;;5.26;100.00;100987.25;109858;1250;63561;-80
2023/12/29 06:56:19;;;;;;;19.40;14.10;;;;;;;5.25;100.00;100986.91;109821;1249;72644;-79
2023/12/29 06:58:47;;;;;;;22.60;15.60;;;;;;;5.24;100.00;100979.85;109827;1250;60130;-79
2023/12/29 07:01:15;;;;;;;21.10;14.00;;;;;;;5.23;100.00;100981.23;109873;1251;60411;-79
2023/12/29 07:03:43;;;;;;;20.20;14.40;;;;;;;5.26;100.00;100986.55;109819;1251;73029;-81
2023/12/29 07:06:12;;;;;;;18.90;13.40;;;;;;;5.27;100.00;100982.52;109860;1250;62598;-79
2023/12/29 07:08:40;;;;;;;23.50;14.60;;;;;;;5.29;100.00;100987.83;109807;1251;71428;-80
2023/12/29 07:11:13;;;;;;;25.10;14.90;;;;;;;5.28;100.00;100984.05;109806;1251;60039;-80
2023/12/29 07:13:41;;;;;;;22.00;14.60;;;;;;;5.26;100.00;100981.48;109851;1249;60131;-80
2023/12/29 07:17:59;;;;;;;24.50;14.30;;;;;;;5.27;100.00;100980.25;102769;1291;600328;-80
2023/12/29 07:20:28;;;;;;;21.40;14.90;;;;;;;5.25;100.00;100977.57;105102;1266;60851;-81
2023/12/29 07:22:55;;;;;;;20.10;14.60;;;;;;;5.26;100.00;100974.39;105080;1264;60144;-79
2023/12/29 07:25:23;;;;;;;27.20;15.90;;;;;;;5.28;100.00;100974.50;105179;1269;70047;-84
2023/12/29 07:27:52;;;;;;;25.40;15.10;;;;;;;5.27;100.00;100975.57;105196;1264;63663;-82
2023/12/29 07:30:20;;;;;;;27.90;18.50;;;;;;;5.28;100.00;100977.30;105232;1263;72788;-81
2023/12/29 07:32:48;;;;;;;24.50;16.30;;;;;;;5.27;100.00;100979.91;105192;1266;174240;-81
2023/12/29 07:35:17;;;;;;;20.90;14.10;;;;;;;5.26;100.00;100980.98;105495;1261;59260;-81
2023/12/29 07:37:46;;;;;;;18.90;15.30;;;;;;;5.25;100.00;100983.10;105575;1262;70322;-79
2023/12/29 07:40:13;;;;;;;18.30;14.00;;;;;;;5.25;100.00;100987.60;105482;1257;62813;-82
2023/12/29 07:42:43;;;;;;;29.00;17.90;;;;;;;5.29;100.00;100990.59;105600;1262;73036;-81
2023/12/29 07:45:11;;;;;;;23.50;16.10;;;;;;;5.34;100.00;100991.14;105648;1257;60950;-80
2023/12/29 07:47:38;;;;;;;22.20;14.30;;;;;;;5.42;100.00;100986.38;105694;1257;60055;-81
2023/12/29 07:50:07;;;;;;;19.10;15.10;;;;;;;5.48;100.00;100979.77;105654;1262;72111;-80
2023/12/29 07:52:34;;;;;;;25.40;18.70;;;;;;;5.54;100.00;100983.21;105512;1257;62442;-80
2023/12/29 07:55:02;;;;;;;32.60;21.30;;;;;;;5.61;100.00;100989.73;105364;1262;72991;-80
2023/12/29 07:57:30;;;;;;;24.90;16.30;;;;;;;5.69;100.00;100988.95;105717;1257;59688;-82
2023/12/29 07:59:57;;;;;;;20.60;15.30;;;;;;;5.74;100.00;100995.19;105540;1257;60655;-82
2023/12/29 08:02:27;;;;;;;22.40;16.00;;;;;;;5.76;100.00;100999.78;105491;1261;70967;-80
2023/12/29 08:04:55;;;;;;;24.00;15.20;;;;;;;5.79;100.00;101003.17;105435;1258;62753;-81
2023/12/29 08:07:22;;;;;;;22.60;15.90;;;;;;;5.79;100.00;101001.63;105699;1258;71433;-81
2023/12/29 08:09:50;;;;;;;21.60;15.20;;;;;;;5.79;100.00;101003.50;105517;1262;60808;-82
2023/12/29 08:12:17;;;;;;;26.00;17.20;;;;;;;5.81;100.00;101000.33;105489;1257;60261;-82
2023/12/29 08:14:44;;;;;;;21.20;15.70;;;;;;;5.82;100.00;100998.90;105596;1257;73128;-83
2023/12/29 08:17:12;;;;;;;21.20;16.00;;;;;;;5.82;100.00;100998.73;105510;1257;62348;-81
2023/12/29 08:19:40;;;;;;;23.80;17.30;;;;;;;5.81;100.00;100990.98;105451;1257;71445;-81
2023/12/29 08:22:08;;;;;;;23.00;15.60;;;;;;;5.81;100.00;100986.98;105484;1257;59637;-80
2023/12/29 08:24:36;;;;;;;23.90;15.50;;;;;;;5.82;100.00;100983.63;105449;1257;60053;-80
2023/12/29 08:27:03;;;;;;;19.90;14.40;;;;;;;5.83;100.00;100976.66;105506;1262;74055;-81
2023/12/29 08:29:31;;;;;;;22.50;16.00;;;;;;;5.85;100.00;100980.23;105460;1257;63934;-81
2023/12/29 08:31:58;;;;;;;20.00;15.20;;;;;;;5.89;100.00;100983.20;105548;1259;73133;-81
2023/12/29 08:34:26;;;;;;;27.40;16.40;;;;;;;5.95;100.00;100980.45;105512;1257;60883;-79
2023/12/29 08:36:55;;;;;;;24.30;17.40;;;;;;;5.99;100.00;100977.51;105488;1258;59716;-80
2023/12/29 08:39:23;;;;;;;23.20;15.80;;;;;;;6.00;100.00;100973.66;105403;1257;73053;-81
2023/12/29 08:41:50;;;;;;;25.70;17.70;;;;;;;5.99;100.00;100974.04;105477;1257;61581;-81
2023/12/29 08:44:18;;;;;;;26.80;19.10;;;;;;;6.01;100.00;100972.77;105556;1260;71690;-82
2023/12/29 08:46:45;;;;;;;26.00;18.60;;;;;;;6.02;100.00;100978.98;105651;1259;59765;-80
2023/12/29 08:49:13;;;;;;;22.70;15.10;;;;;;;6.06;100.00;100981.27;105381;1257;59803;-79
2023/12/29 08:51:41;;;;;;;23.10;16.30;;;;;;;6.11;100.00;100981.61;105400;1260;73908;-82
2023/12/29 08:54:08;;;;;;;19.40;15.40;;;;;;;6.14;100.00;100978.76;105427;1263;63937;-83
2023/12/29 08:56:36;;;;;;;22.30;14.90;;;;;;;6.18;100.00;100978.95;105571;1262;72671;-82
2023/12/29 08:59:03;;;;;;;24.20;17.20;;;;;;;6.24;100.00;100995.06;105480;1260;59777;-81
2023/12/29 09:01:30;;;;;;;23.10;16.60;;;;;;;6.29;100.00;101001.63;105593;1257;60158;-80
2023/12/29 09:03:59;;;;;;;20.50;16.30;;;;;;;6.31;100.00;100998.24;105768;1257;73064;-83
2023/12/29 09:06:26;;;;;;;24.40;16.60;;;;;;;6.31;100.00;100994.09;105588;1263;63826;-82
2023/12/29 09:08:54;;;;;;;26.20;17.00;;;;;;;6.28;100.00;100986.05;105421;1258;70369;-83
2023/12/29 09:11:21;;;;;;;21.20;16.50;;;;;;;6.23;100.00;100979.45;105359;1262;59693;-81
2023/12/29 09:13:49;;;;;;;28.80;18.30;;;;;;;6.19;100.00;100971.77;105338;1258;59908;-83
2023/12/29 09:16:16;;;;;;;27.10;17.80;;;;;;;6.20;100.00;100971.92;105465;1262;72864;-82
2023/12/29 09:18:44;;;;;;;25.80;17.70;;;;;;;6.20;100.00;100975.23;105556;1257;63805;-81
2023/12/29 09:21:12;;;;;;;30.80;20.40;;;;;;;6.21;100.00;100972.59;105523;1262;71784;-80
2023/12/29 09:23:40;;;;;;;23.60;16.50;;;;;;;6.20;100.00;100975.55;105589;1257;61338;-80
2023/12/29 09:26:07;;;;;;;25.20;19.50;;;;;;;6.23;100.00;100979.61;105468;1257;59644;-80
2023/12/29 09:28:35;;;;;;;22.20;16.20;;;;;;;6.27;100.00;100981.39;105417;1263;72771;-82
2023/12/29 09:31:04;;;;;;;23.50;16.80;;;;;;;6.30;100.00;100975.91;105328;1257;62585;-80
2023/12/29 09:33:31;;;;;;;19.70;15.40;;;;;;;6.35;100.00;100973.83;105349;1257;71102;-80
2023/12/29 09:35:59;;;;;;;26.70;16.60;;;;;;;6.40;100.00;100966.84;105507;1263;61292;-80
2023/12/29 09:38:26;;;;;;;23.40;16.00;;;;;;;6.47;100.00;100967.83;105563;1257;59956;-80
2023/12/29 09:40:57;;;;;;;23.10;16.70;;;;;;;6.53;100.00;100966.89;105348;1262;73146;-79
2023/12/29 09:43:26;;;;;;;26.20;17.50;;;;;;;6.57;100.00;100963.77;105466;1257;62474;-81
2023/12/29 09:45:53;;;;;;;22.30;16.60;;;;;;;6.56;100.00;100961.56;105389;1262;72404;-79
2023/12/29 09:48:21;;;;;;;24.70;17.50;;;;;;;6.53;100.00;100958.38;105436;1258;61000;-80
2023/12/29 09:50:49;;;;;;;23.30;16.40;;;;;;;6.52;100.00;100958.09;105432;1257;59644;-80
2023/12/29 09:53:18;;;;;;;23.60;17.10;;;;;;;6.52;100.00;100951.83;105449;1257;72790;-81
2023/12/29 09:55:46;;;;;;;25.20;16.70;;;;;;;6.50;100.00;100951.38;105526;1262;63752;-80
2023/12/29 09:58:13;;;;;;;27.00;18.00;;;;;;;6.45;100.00;100952.77;105303;1260;71441;-81
2023/12/29 10:00:42;;;;;;;24.20;17.40;;;;;;;6.38;100.00;100949.20;105454;1257;59813;-81
2023/12/29 10:03:10;;;;;;;26.60;18.80;;;;;;;6.34;100.00;100948.33;105439;1260;59541;-80
2023/12/29 10:05:38;;;;;;;22.50;17.80;;;;;;;6.32;100.00;100946.86;105423;1263;72792;-81
2023/12/29 10:08:06;;;;;;;24.90;19.00;;;;;;;6.31;100.00;100942.38;105424;1257;62628;-79
2023/12/29 10:10:34;;;;;;;23.10;18.10;;;;;;;6.28;100.00;100942.48;105404;1257;71037;-81
2023/12/29 10:13:02;;;;;;;25.10;18.80;;;;;;;6.23;100.00;100939.17;105419;1260;60621;-82
2023/12/29 10:15:55;;;;;;;31.20;18.30;;;;;;;6.19;100.00;100934.98;105479;1262;59733;-80
2023/12/29 10:18:44;;;;;;;25.10;17.80;;;;;;;6.17;100.00;100929.33;105481;1257;72146;-81
2023/12/29 10:21:15;;;;;;;34.50;20.80;;;;;;;6.18;100.00;100924.41;105574;1259;62879;-81
2023/12/29 10:23:52;;;;;;;26.90;19.60;;;;;;;6.19;100.00;100918.65;105399;1257;72705;-78
2023/12/29 10:26:20;;;;;;;29.70;19.90;;;;;;;6.16;100.00;100917.55;105285;1257;59611;-80
2023/12/29 10:28:48;;;;;;;27.10;18.60;;;;;;;6.12;100.00;100909.34;105277;1257;60041;-80
2023/12/29 10:31:16;;;;;;;27.00;19.50;;;;;;;6.10;100.00;100906.15;105325;1257;73202;-77
2023/12/29 10:33:50;;;;;;;25.40;19.00;;;;;;;6.05;100.00;100906.17;105329;1262;62516;-77
2023/12/29 10:36:18;;;;;;;26.70;21.10;;;;;;;6.00;100.00;100902.16;105462;1257;70818;-77
2023/12/29 10:38:45;;;;;;;28.30;19.20;;;;;;;5.99;100.00;100899.10;105473;1257;59747;-79
2023/12/29 10:41:14;;;;;;;27.30;19.50;;;;;;;6.00;100.00;100897.66;105315;1262;59624;-80
2023/12/29 10:43:43;;;;;;;29.30;20.00;;;;;;;6.03;100.00;100894.97;105385;1257;71986;-78
2023/12/29 10:46:11;;;;;;;32.20;21.00;;;;;;;6.04;100.00;100899.92;105299;1257;62433;-80
2023/12/29 10:48:39;;;;;;;24.80;18.30;;;;;;;6.08;100.00;100900.32;105331;1257;71321;-80
2023/12/29 10:51:07;;;;;;;27.30;20.10;;;;;;;6.13;100.00;100897.71;105351;1257;59807;-80
2023/12/29 10:53:35;;;;;;;29.40;19.40;;;;;;;6.16;100.00;100895.33;105490;1257;59788;-80
2023/12/29 10:56:19;;;;;;;41.40;25.30;;;;;;;6.19;100.00;100890.36;105420;1262;72489;-80
2023/12/29 10:58:59;;;;;;;29.80;21.10;;;;;;;6.22;100.00;100882.06;105475;1257;63676;-78
2023/12/29 11:01:27;;;;;;;26.70;20.70;;;;;;;6.21;100.00;100878.98;105293;1262;72661;-77
2023/12/29 11:03:59;;;;;;;29.30;21.20;;;;;;;6.22;100.00;100889.55;105421;1258;60056;-78
2023/12/29 11:06:30;;;;;;;34.20;21.00;;;;;;;6.27;100.00;100897.02;105485;1257;59823;-80
2023/12/29 11:08:57;;;;;;;25.80;19.90;;;;;;;6.33;100.00;100892.63;105356;1262;71672;-79
2023/12/29 11:11:25;;;;;;;25.70;18.70;;;;;;;6.36;100.00;100891.11;105421;1257;64184;-78
2023/12/29 11:13:53;;;;;;;30.00;19.80;;;;;;;6.39;100.00;100884.91;105060;1257;72504;-78
2023/12/29 11:16:21;;;;;;;28.30;21.10;;;;;;;6.44;100.00;100879.19;105428;1262;62068;-80